createdAt,value
2019-02-21T00:00:23.943Z,97907.02
2019-02-21T00:05:12.128Z,97916.73
2019-02-21T00:10:08.370Z,97923.73
2019-02-21T00:15:02.932Z,97927.79
2019-02-21T00:19:57.532Z,97924.02
2019-02-21T00:24:52.196Z,97927.87
2019-02-21T00:29:46.792Z,97931.27
2019-02-21T00:34:41.365Z,97933.51
2019-02-21T00:39:35.961Z,97939.78
2019-02-21T00:44:30.567Z,97939.38
2019-02-21T00:49:25.199Z,97940.48
2019-02-21T00:54:19.858Z,97945.30
2019-02-21T00:59:14.537Z,97945.88
2019-02-21T01:04:09.122Z,97948.98
2019-02-21T01:09:04.801Z,97961.05
2019-02-21T01:13:59.361Z,97960.23
2019-02-21T01:18:53.974Z,97961.38
2019-02-21T01:23:48.535Z,97963.28
2019-02-21T01:28:43.210Z,97963.69
2019-02-21T01:33:37.863Z,97958.97
2019-02-21T01:38:32.492Z,97968.17
2019-02-21T01:43:27.033Z,97976.67
2019-02-21T01:48:21.642Z,97982.17
2019-02-21T01:53:16.281Z,97977.40
2019-02-21T01:58:11.127Z,97972.11
2019-02-21T02:03:05.848Z,97970.75
2019-02-21T02:08:00.444Z,97970.20
2019-02-21T02:12:55.045Z,97970.20
2019-02-21T02:17:49.625Z,97969.58
2019-02-21T02:23:03.545Z,97966.66
2019-02-21T02:27:58.149Z,97971.50
2019-02-21T02:32:52.738Z,97971.56
2019-02-21T02:37:47.347Z,97968.17
2019-02-21T02:42:41.907Z,97970.27
2019-02-21T02:47:36.513Z,97972.70
2019-02-21T02:52:31.099Z,97970.08
2019-02-21T02:57:25.703Z,97968.84
2019-02-21T03:02:20.270Z,97969.61
2019-02-21T03:07:14.875Z,97963.81
2019-02-21T03:12:09.446Z,97960.52
2019-02-21T03:17:04.119Z,97966.23
2019-02-21T03:21:58.682Z,97970.38
2019-02-21T03:26:53.296Z,97969.12
2019-02-21T03:31:54.767Z,97972.20
2019-02-21T03:36:44.205Z,97972.34
2019-02-21T03:41:38.853Z,97983.72
2019-02-21T03:46:33.451Z,97982.66
2019-02-21T03:51:28.038Z,97997.89
2019-02-21T03:56:22.734Z,98002.76
2019-02-21T04:01:17.504Z,98005.42
2019-02-21T04:06:12.140Z,98010.77
2019-02-21T04:11:06.784Z,98010.33
2019-02-21T04:16:01.452Z,98007.80
2019-02-21T04:20:56.122Z,98019.16
2019-02-21T04:25:50.712Z,98020.13
2019-02-21T04:30:45.292Z,98028.89
2019-02-21T04:35:39.939Z,98022.52
2019-02-21T04:40:34.567Z,98022.64
2019-02-21T04:45:29.147Z,98026.06
2019-02-21T04:50:23.739Z,98026.71
2019-02-21T04:55:18.324Z,98028.89
2019-02-21T05:00:14.026Z,98036.23
2019-02-21T05:05:08.690Z,98027.77
2019-02-21T05:10:03.283Z,98036.92
2019-02-21T05:14:57.875Z,98026.69
2019-02-21T05:19:52.475Z,98027.77
2019-02-21T05:24:47.065Z,98025.26
2019-02-21T05:29:41.666Z,98027.23
2019-02-21T05:34:52.724Z,98035.88
2019-02-21T05:39:54.479Z,98032.71
2019-02-21T05:44:50.819Z,98037.05
2019-02-21T05:49:54.382Z,98034.80
2019-02-21T05:54:50.633Z,98038.88
2019-02-21T05:59:50.472Z,98040.95
2019-02-21T06:04:46.698Z,98035.85
2019-02-21T06:09:45.589Z,98046.88
2019-02-21T06:14:47.594Z,98053.22
2019-02-21T06:19:52.532Z,98063.83
2019-02-21T06:25:04.815Z,98074.44
2019-02-21T06:30:01.051Z,98072.95
2019-02-21T06:35:02.787Z,98070.92
2019-02-21T06:39:57.713Z,98076.48
2019-02-21T06:44:52.318Z,98081.05
2019-02-21T06:49:46.963Z,98079.91
2019-02-21T06:54:41.569Z,98087.23
2019-02-21T06:59:43.230Z,98094.63
2019-02-21T07:04:33.367Z,98097.31
2019-02-21T07:09:28.288Z,98102.84
2019-02-21T07:14:22.884Z,98102.81
2019-02-21T07:19:17.473Z,98095.08
2019-02-21T07:24:12.066Z,98094.77
2019-02-21T07:29:06.690Z,98103.47
2019-02-21T07:34:01.773Z,98109.89
2019-02-21T07:39:13.637Z,98122.22
2019-02-21T07:43:53.086Z,98121.25
2019-02-21T07:48:47.649Z,98118.02
2019-02-21T07:53:42.648Z,98122.66
2019-02-21T07:58:39.548Z,98123.88
2019-02-21T08:03:43.789Z,98117.61
2019-02-21T08:08:32.348Z,98121.69
2019-02-21T08:13:26.567Z,98126.19
2019-02-21T08:18:21.251Z,98118.99
2019-02-21T08:23:15.843Z,98122.48
2019-02-21T08:28:11.303Z,98130.59
2019-02-21T08:33:11.178Z,98128.16
2019-02-21T08:38:06.350Z,98128.26
2019-02-21T08:43:03.853Z,98129.91
2019-02-21T08:47:57.499Z,98123.73
2019-02-21T08:53:03.177Z,98124.67
2019-02-21T08:58:02.529Z,98123.59
2019-02-21T09:02:57.189Z,98129.86
2019-02-21T09:07:51.875Z,98130.95
2019-02-21T09:12:48.527Z,98135.92
2019-02-21T09:17:42.899Z,98139.10
2019-02-21T09:22:52.430Z,98136.88
2019-02-21T09:27:51.475Z,98142.60
2019-02-21T09:32:46.500Z,98136.84
2019-02-21T09:38:00.830Z,98144.19
2019-02-21T09:42:53.702Z,98139.45
2019-02-21T09:47:49.098Z,98143.53
2019-02-21T09:52:43.829Z,98147.93
2019-02-21T09:57:38.532Z,98155.08
2019-02-21T10:02:34.183Z,98144.16
2019-02-21T10:07:29.727Z,98150.16
2019-02-21T10:12:24.415Z,98150.81
2019-02-21T10:17:19.095Z,98142.27
2019-02-21T10:22:13.670Z,98146.92
2019-02-21T10:27:08.280Z,98143.41
2019-02-21T10:32:02.964Z,98133.52
2019-02-21T10:37:00.543Z,98130.94
2019-02-21T10:42:01.624Z,98122.39
2019-02-21T10:47:02.158Z,98124.61
2019-02-21T10:51:57.076Z,98118.34
2019-02-21T10:56:51.774Z,98116.52
2019-02-21T11:01:47.275Z,98101.31
2019-02-21T11:06:42.052Z,98093.42
2019-02-21T11:11:37.884Z,98087.52
2019-02-21T11:16:32.590Z,98073.53
2019-02-21T11:21:31.450Z,98068.02
2019-02-21T11:26:26.599Z,98056.23
2019-02-21T11:31:27.812Z,98058.89
2019-02-21T11:36:29.019Z,98054.62
2019-02-21T11:41:24.149Z,98055.09
2019-02-21T11:46:18.871Z,98037.49
2019-02-21T11:51:13.624Z,98036.76
2019-02-21T11:56:15.783Z,98025.53
2019-02-21T12:01:11.603Z,98027.64
2019-02-21T12:06:06.345Z,98024.73
2019-02-21T12:11:01.252Z,98027.11
2019-02-21T12:15:55.929Z,98027.28
2019-02-21T12:20:50.557Z,98022.06
2019-02-21T12:25:45.222Z,98011.30
2019-02-21T12:30:45.523Z,98002.97
2019-02-21T12:35:40.486Z,98001.45
2019-02-21T12:40:35.440Z,98002.91
2019-02-21T12:45:30.241Z,97999.29
2019-02-21T12:50:24.837Z,97989.05
2019-02-21T12:55:27.952Z,97985.07
2019-02-21T13:00:21.469Z,97993.40
2019-02-21T13:05:16.287Z,97992.34
2019-02-21T13:10:17.362Z,97988.31
2019-02-21T13:15:15.497Z,97995.48
2019-02-21T13:20:13.581Z,97985.12
2019-02-21T13:25:12.410Z,97975.21
2019-02-21T13:30:14.283Z,97980.47
2019-02-21T13:35:10.604Z,97978.64
2019-02-21T13:40:14.542Z,97970.95
2019-02-21T13:45:12.053Z,97968.41
2019-02-21T13:50:12.470Z,97961.50
2019-02-21T13:55:08.223Z,97960.03
2019-02-21T14:00:03.818Z,97958.64
2019-02-21T14:04:58.987Z,97958.25
2019-02-21T14:09:53.714Z,97948.73
2019-02-21T14:14:48.298Z,97942.73
2019-02-21T14:19:42.893Z,97941.08
2019-02-21T14:24:44.822Z,97938.39
2019-02-21T14:29:39.842Z,97932.18
2019-02-21T14:34:34.403Z,97941.66
2019-02-21T14:39:29.978Z,97937.98
2019-02-21T14:44:25.350Z,97933.97
2019-02-21T14:49:20.289Z,97932.05
2019-02-21T14:54:16.487Z,97927.59
2019-02-21T14:59:13.767Z,97930.39
2019-02-21T15:04:08.422Z,97920.40
2019-02-21T15:09:03.042Z,97917.41
2019-02-21T15:13:57.751Z,97919.95
2019-02-21T15:18:55.123Z,97915.17
2019-02-21T15:23:48.773Z,97927.80
2019-02-21T15:28:43.389Z,97919.51
2019-02-21T15:33:38.071Z,97920.03
2019-02-21T15:38:34.626Z,97917.92
2019-02-21T15:43:29.563Z,97914.41
2019-02-21T15:48:24.351Z,97914.36
2019-02-21T15:53:19.073Z,97912.55
2019-02-21T15:58:24.542Z,97920.04
2019-02-21T16:03:19.144Z,97919.73
2019-02-21T16:08:13.759Z,97924.25
2019-02-21T16:13:08.568Z,97924.22
2019-02-21T16:18:03.435Z,97937.73
2019-02-21T16:22:58.264Z,97940.31
2019-02-21T16:27:55.214Z,97939.65
2019-02-21T16:32:49.410Z,97952.03
2019-02-21T16:37:44.102Z,97960.00
2019-02-21T16:42:38.693Z,97962.15
2019-02-21T16:47:33.293Z,97960.60
2019-02-21T16:52:28.000Z,97970.41
2019-02-21T16:57:22.622Z,97968.28
2019-02-21T17:02:17.201Z,97967.20
2019-02-21T17:07:18.493Z,97974.11
2019-02-21T17:12:08.124Z,97982.28
2019-02-21T17:17:02.734Z,97991.09
2019-02-21T17:21:57.303Z,97993.71
2019-02-21T17:26:51.973Z,98002.67
2019-02-21T17:31:46.690Z,98012.30
2019-02-21T17:36:41.307Z,98017.44
2019-02-21T17:41:35.896Z,98020.13
2019-02-21T17:46:30.530Z,98027.22
2019-02-21T17:51:25.167Z,98030.89
2019-02-21T17:56:19.760Z,98033.09
2019-02-21T18:01:14.350Z,98034.41
2019-02-21T18:06:08.943Z,98045.06
2019-02-21T18:11:06.353Z,98054.55
2019-02-21T18:16:00.939Z,98051.86
2019-02-21T18:20:55.526Z,98058.30
2019-02-21T18:25:57.473Z,98064.91
2019-02-21T18:30:52.077Z,98066.62
2019-02-21T18:35:46.966Z,98074.88
2019-02-21T18:40:41.619Z,98072.20
2019-02-21T18:45:36.285Z,98074.49
2019-02-21T18:50:38.319Z,98076.38
2019-02-21T18:55:27.316Z,98075.47
2019-02-21T19:00:24.770Z,98084.86
2019-02-21T19:05:19.673Z,98090.33
2019-02-21T19:10:19.630Z,98092.62
2019-02-21T19:15:16.031Z,98096.98
2019-02-21T19:20:14.144Z,98099.69
2019-02-21T19:25:11.245Z,98098.11
2019-02-21T19:30:22.355Z,98106.50
2019-02-21T19:35:17.894Z,98104.26
2019-02-21T19:40:12.746Z,98117.86
2019-02-21T19:45:09.648Z,98112.34
2019-02-21T19:50:06.884Z,98118.72
2019-02-21T19:55:05.498Z,98125.61
2019-02-21T20:00:00.360Z,98116.69
2019-02-21T20:04:55.327Z,98116.69
2019-02-21T20:09:50.043Z,98123.23
2019-02-21T20:14:44.641Z,98126.55
2019-02-21T20:19:39.311Z,98123.83
2019-02-21T20:24:33.896Z,98130.47
2019-02-21T20:29:28.568Z,98147.77
2019-02-21T20:34:23.170Z,98149.25
2019-02-21T20:39:17.845Z,98159.20
2019-02-21T20:44:12.439Z,98162.44
2019-02-21T20:49:07.135Z,98162.31
2019-02-21T20:54:01.695Z,98166.77
2019-02-21T20:58:56.354Z,98162.53
2019-02-21T21:03:50.942Z,98163.72
2019-02-21T21:08:46.728Z,98169.90
2019-02-21T21:13:43.964Z,98172.34
2019-02-21T21:18:37.777Z,98164.20
2019-02-21T21:23:32.368Z,98169.72
2019-02-21T21:28:26.958Z,98175.91
2019-02-21T21:33:21.536Z,98184.36
2019-02-21T21:38:23.762Z,98189.59
2019-02-21T21:43:12.482Z,98179.02
2019-02-21T21:48:07.136Z,98186.66
2019-02-21T21:53:01.721Z,98196.44
2019-02-21T21:57:56.320Z,98201.33
2019-02-21T22:02:51.013Z,98206.34
2019-02-21T22:07:45.583Z,98214.35
2019-02-21T22:12:40.174Z,98210.13
2019-02-21T22:17:34.776Z,98210.27
2019-02-21T22:22:29.433Z,98214.02
2019-02-21T22:27:24.831Z,98213.34
2019-02-21T22:32:19.815Z,98211.73
2019-02-21T22:37:14.385Z,98205.88
2019-02-21T22:42:08.977Z,98201.00
2019-02-21T22:47:03.558Z,98215.48
2019-02-21T22:51:58.180Z,98214.19
2019-02-21T22:56:52.809Z,98212.41
2019-02-21T23:01:47.623Z,98222.97
2019-02-21T23:06:58.411Z,98229.17
2019-02-21T23:11:53.047Z,98226.58
2019-02-21T23:16:48.177Z,98236.49
2019-02-21T23:21:42.956Z,98239.75
2019-02-21T23:26:37.612Z,98233.41
2019-02-21T23:31:32.185Z,98239.44
2019-02-21T23:36:26.776Z,98236.02
2019-02-21T23:41:21.488Z,98237.81
2019-02-21T23:46:16.117Z,98245.80
2019-02-21T23:51:10.702Z,98237.50
2019-02-21T23:56:05.355Z,98233.42
